sensor_id;sensor_type;location;lat;lon;timestamp;pressure;altitude;pressure_sealevel;temperature;humidity
30856;BME280;17570;0.000;0.000;2023-01-27T00:00:19;96303.50;;;11.49;40.51
30856;BME280;17570;0.000;0.000;2023-01-27T00:02:46;96300.19;;;11.57;40.64
30856;BME280;17570;0.000;0.000;2023-01-27T00:05:15;96298.11;;;11.33;40.68
30856;BME280;17570;0.000;0.000;2023-01-27T00:07:45;96285.39;;;11.30;40.84
30856;BME280;17570;0.000;0.000;2023-01-27T00:10:14;96291.79;;;11.36;40.67
30856;BME280;17570;0.000;0.000;2023-01-27T00:12:42;96301.44;;;11.53;40.23
30856;BME280;17570;0.000;0.000;2023-01-27T00:15:29;96302.14;;;11.45;40.26
30856;BME280;17570;0.000;0.000;2023-01-27T00:17:57;96305.21;;;11.31;40.73
30856;BME280;17570;0.000;0.000;2023-01-27T00:20:24;96299.44;;;11.37;40.64
30856;BME280;17570;0.000;0.000;2023-01-27T00:23:28;96296.36;;;11.52;40.38
30856;BME280;17570;0.000;0.000;2023-01-27T00:26:01;96290.70;;;11.38;40.39
30856;BME280;17570;0.000;0.000;2023-01-27T00:28:31;96282.02;;;11.20;41.16
30856;BME280;17570;0.000;0.000;2023-01-27T00:30:59;96277.41;;;11.41;40.75
30856;BME280;17570;0.000;0.000;2023-01-27T00:33:27;96271.44;;;11.59;40.21
30856;BME280;17570;0.000;0.000;2023-01-27T00:35:58;96271.44;;;11.59;40.30
30856;BME280;17570;0.000;0.000;2023-01-27T00:38:30;96261.58;;;11.62;39.96
30856;BME280;17570;0.000;0.000;2023-01-27T00:40:57;96275.77;;;11.40;40.41
30856;BME280;17570;0.000;0.000;2023-01-27T00:43:43;96284.53;;;11.39;40.39
30856;BME280;17570;0.000;0.000;2023-01-27T00:46:11;96287.36;;;11.46;40.03
30856;BME280;17570;0.000;0.000;2023-01-27T00:48:39;96290.66;;;11.48;40.18
30856;BME280;17570;0.000;0.000;2023-01-27T00:51:06;96292.05;;;11.42;40.33
30856;BME280;17570;0.000;0.000;2023-01-27T00:53:34;96297.53;;;11.39;40.24
30856;BME280;17570;0.000;0.000;2023-01-27T00:56:01;96306.32;;;11.56;40.06
30856;BME280;17570;0.000;0.000;2023-01-27T00:58:29;96305.39;;;11.57;39.92
30856;BME280;17570;0.000;0.000;2023-01-27T01:00:57;96303.22;;;11.53;40.04
30856;BME280;17570;0.000;0.000;2023-01-27T01:03:26;96295.11;;;11.56;39.83
30856;BME280;17570;0.000;0.000;2023-01-27T01:05:56;96290.07;;;11.54;39.87
30856;BME280;17570;0.000;0.000;2023-01-27T01:08:24;96287.41;;;11.36;40.17
30856;BME280;17570;0.000;0.000;2023-01-27T01:10:52;96285.28;;;11.22;40.45
30856;BME280;17570;0.000;0.000;2023-01-27T01:13:20;96284.70;;;11.28;40.32
30856;BME280;17570;0.000;0.000;2023-01-27T01:15:47;96281.35;;;11.45;39.95
30856;BME280;17570;0.000;0.000;2023-01-27T01:18:15;96281.45;;;11.54;39.69
30856;BME280;17570;0.000;0.000;2023-01-27T01:20:43;96281.66;;;11.42;40.16
30856;BME280;17570;0.000;0.000;2023-01-27T01:23:11;96281.59;;;11.24;40.52
30856;BME280;17570;0.000;0.000;2023-01-27T01:25:39;96280.38;;;11.46;40.23
30856;BME280;17570;0.000;0.000;2023-01-27T01:28:07;96286.12;;;11.50;40.01
30856;BME280;17570;0.000;0.000;2023-01-27T01:30:35;96284.42;;;11.31;40.23
30856;BME280;17570;0.000;0.000;2023-01-27T01:33:04;96282.26;;;11.27;40.42
30856;BME280;17570;0.000;0.000;2023-01-27T01:35:35;96284.77;;;11.46;40.09
30856;BME280;17570;0.000;0.000;2023-01-27T01:38:01;96281.89;;;11.49;39.93
30856;BME280;17570;0.000;0.000;2023-01-27T01:40:28;96272.94;;;11.34;40.09
30856;BME280;17570;0.000;0.000;2023-01-27T01:42:57;96261.86;;;11.32;40.18
30856;BME280;17570;0.000;0.000;2023-01-27T01:48:03;96218.80;;;11.57;39.91
30856;BME280;17570;0.000;0.000;2023-01-27T01:50:31;96204.14;;;11.38;40.07
30856;BME280;17570;0.000;0.000;2023-01-27T01:53:00;96201.07;;;11.24;40.45
30856;BME280;17570;0.000;0.000;2023-01-27T01:55:28;96196.20;;;11.39;40.34
30856;BME280;17570;0.000;0.000;2023-01-27T01:57:56;96205.94;;;11.55;39.88
30856;BME280;17570;0.000;0.000;2023-01-27T02:00:24;96224.44;;;11.52;39.87
30856;BME280;17570;0.000;0.000;2023-01-27T02:02:51;96232.84;;;11.36;40.21
30856;BME280;17570;0.000;0.000;2023-01-27T02:05:25;96227.16;;;11.50;39.73
30856;BME280;17570;0.000;0.000;2023-01-27T02:08:04;96234.23;;;11.58;39.59
30856;BME280;17570;0.000;0.000;2023-01-27T02:10:31;96233.82;;;11.35;40.04
30856;BME280;17570;0.000;0.000;2023-01-27T02:12:59;96232.75;;;11.28;40.38
30856;BME280;17570;0.000;0.000;2023-01-27T02:15:28;96228.72;;;11.43;40.01
30856;BME280;17570;0.000;0.000;2023-01-27T02:17:56;96231.83;;;11.47;39.95
30856;BME280;17570;0.000;0.000;2023-01-27T02:28:06;96215.73;;;11.43;40.18
30856;BME280;17570;0.000;0.000;2023-01-27T02:30:33;96210.75;;;11.50;39.98
30856;BME280;17570;0.000;0.000;2023-01-27T02:33:08;96204.46;;;11.53;39.94
30856;BME280;17570;0.000;0.000;2023-01-27T02:35:40;96213.89;;;11.54;39.96
30856;BME280;17570;0.000;0.000;2023-01-27T02:38:04;96213.20;;;11.52;40.06
30856;BME280;17570;0.000;0.000;2023-01-27T02:40:32;96220.98;;;11.34;40.30
30856;BME280;17570;0.000;0.000;2023-01-27T02:43:00;96203.73;;;11.33;40.44
30856;BME280;17570;0.000;0.000;2023-01-27T02:45:29;96202.92;;;11.32;40.38
30856;BME280;17570;0.000;0.000;2023-01-27T02:47:58;96201.45;;;11.30;40.25
30856;BME280;17570;0.000;0.000;2023-01-27T02:50:26;96191.91;;;11.48;39.94
30856;BME280;17570;0.000;0.000;2023-01-27T02:52:53;96205.12;;;11.55;39.94
30856;BME280;17570;0.000;0.000;2023-01-27T02:55:21;96198.89;;;11.47;40.01
30856;BME280;17570;0.000;0.000;2023-01-27T02:57:49;96202.36;;;11.38;40.17
30856;BME280;17570;0.000;0.000;2023-01-27T03:00:34;96217.30;;;11.54;39.88
30856;BME280;17570;0.000;0.000;2023-01-27T03:03:04;96216.70;;;11.42;39.76
30856;BME280;17570;0.000;0.000;2023-01-27T03:05:31;96201.30;;;11.31;40.00
30856;BME280;17570;0.000;0.000;2023-01-27T03:07:59;96203.30;;;11.37;39.85
30856;BME280;17570;0.000;0.000;2023-01-27T03:10:26;96208.84;;;11.52;39.56
30856;BME280;17570;0.000;0.000;2023-01-27T03:12:55;96192.25;;;11.35;39.90
30856;BME280;17570;0.000;0.000;2023-01-27T03:15:23;96170.94;;;11.32;40.02
30856;BME280;17570;0.000;0.000;2023-01-27T03:18:09;96151.95;;;11.49;39.82
30856;BME280;17570;0.000;0.000;2023-01-27T03:20:39;96148.17;;;11.43;39.96
30856;BME280;17570;0.000;0.000;2023-01-27T03:23:07;96162.92;;;11.25;40.41
30856;BME280;17570;0.000;0.000;2023-01-27T03:25:35;96169.46;;;11.29;40.26
30856;BME280;17570;0.000;0.000;2023-01-27T03:28:03;96182.17;;;11.50;39.78
30856;BME280;17570;0.000;0.000;2023-01-27T03:30:32;96178.47;;;11.53;39.80
30856;BME280;17570;0.000;0.000;2023-01-27T03:33:20;96178.01;;;11.39;39.87
30856;BME280;17570;0.000;0.000;2023-01-27T03:36:00;96186.09;;;11.09;40.79
30856;BME280;17570;0.000;0.000;2023-01-27T03:38:46;96172.88;;;11.30;40.39
30856;BME280;17570;0.000;0.000;2023-01-27T03:41:32;96185.52;;;11.42;40.35
30856;BME280;17570;0.000;0.000;2023-01-27T03:44:18;96183.20;;;11.39;40.26
30856;BME280;17570;0.000;0.000;2023-01-27T03:47:04;96178.94;;;11.20;40.61
30856;BME280;17570;0.000;0.000;2023-01-27T03:49:31;96172.93;;;11.20;40.60
30856;BME280;17570;0.000;0.000;2023-01-27T03:51:59;96171.24;;;11.46;40.35
30856;BME280;17570;0.000;0.000;2023-01-27T03:54:26;96178.47;;;11.53;39.76
30856;BME280;17570;0.000;0.000;2023-01-27T03:56:53;96187.90;;;11.54;40.09
30856;BME280;17570;0.000;0.000;2023-01-27T03:59:21;96198.14;;;11.55;39.97
30856;BME280;17570;0.000;0.000;2023-01-27T04:01:48;96211.66;;;11.59;39.96
30856;BME280;17570;0.000;0.000;2023-01-27T04:04:16;96195.98;;;11.50;39.84
30856;BME280;17570;0.000;0.000;2023-01-27T04:07:01;96196.91;;;11.32;40.39
30856;BME280;17570;0.000;0.000;2023-01-27T04:09:30;96199.95;;;11.27;40.36
30856;BME280;17570;0.000;0.000;2023-01-27T04:12:00;96206.69;;;11.47;40.11
30856;BME280;17570;0.000;0.000;2023-01-27T04:17:03;96222.66;;;11.53;39.76
30856;BME280;17570;0.000;0.000;2023-01-27T04:19:31;96212.66;;;11.30;39.97
30856;BME280;17570;0.000;0.000;2023-01-27T04:21:59;96203.80;;;11.23;40.28
30856;BME280;17570;0.000;0.000;2023-01-27T04:24:27;96201.73;;;11.27;40.10
30856;BME280;17570;0.000;0.000;2023-01-27T04:26:59;96211.50;;;11.42;39.75
30856;BME280;17570;0.000;0.000;2023-01-27T04:29:27;96218.64;;;11.58;39.51
30856;BME280;17570;0.000;0.000;2023-01-27T04:31:55;96221.69;;;11.54;39.72
30856;BME280;17570;0.000;0.000;2023-01-27T04:34:24;96224.50;;;11.42;39.50
30856;BME280;17570;0.000;0.000;2023-01-27T04:36:51;96215.69;;;11.26;39.95
30856;BME280;17570;0.000;0.000;2023-01-27T04:39:19;96198.31;;;11.26;40.09
30856;BME280;17570;0.000;0.000;2023-01-27T04:41:46;96196.63;;;11.35;39.95
30856;BME280;17570;0.000;0.000;2023-01-27T04:44:15;96195.91;;;11.42;39.70
30856;BME280;17570;0.000;0.000;2023-01-27T04:46:42;96194.06;;;11.53;39.72
30856;BME280;17570;0.000;0.000;2023-01-27T04:49:10;96205.39;;;11.34;39.87
30856;BME280;17570;0.000;0.000;2023-01-27T04:51:37;96195.13;;;11.32;39.91
30856;BME280;17570;0.000;0.000;2023-01-27T04:54:05;96188.58;;;11.28;39.94
30856;BME280;17570;0.000;0.000;2023-01-27T04:56:36;96165.73;;;11.32;39.78
30856;BME280;17570;0.000;0.000;2023-01-27T04:59:03;96174.09;;;11.53;39.68
30856;BME280;17570;0.000;0.000;2023-01-27T05:01:31;96173.48;;;11.59;40.13
30856;BME280;17570;0.000;0.000;2023-01-27T05:03:59;96158.42;;;11.63;40.67
30856;BME280;17570;0.000;0.000;2023-01-27T05:06:26;96174.99;;;11.62;40.64
30856;BME280;17570;0.000;0.000;2023-01-27T05:08:54;96174.99;;;11.62;40.75
30856;BME280;17570;0.000;0.000;2023-01-27T05:11:21;96170.23;;;11.57;40.61
30856;BME280;17570;0.000;0.000;2023-01-27T05:13:49;96167.77;;;11.56;40.38
30856;BME280;17570;0.000;0.000;2023-01-27T05:16:20;96169.70;;;11.54;40.45
30856;BME280;17570;0.000;0.000;2023-01-27T05:18:49;96170.36;;;11.56;40.43
30856;BME280;17570;0.000;0.000;2023-01-27T05:21:18;96162.80;;;11.44;40.10
30856;BME280;17570;0.000;0.000;2023-01-27T05:23:46;96169.52;;;11.19;40.70
30856;BME280;17570;0.000;0.000;2023-01-27T05:26:23;96174.45;;;11.13;40.79
30856;BME280;17570;0.000;0.000;2023-01-27T05:28:51;96180.23;;;11.34;41.27
30856;BME280;17570;0.000;0.000;2023-01-27T05:31:20;96180.03;;;11.63;42.04
30856;BME280;17570;0.000;0.000;2023-01-27T05:33:49;96185.44;;;11.70;41.34
30856;BME280;17570;0.000;0.000;2023-01-27T05:36:17;96168.91;;;11.71;41.33
30856;BME280;17570;0.000;0.000;2023-01-27T05:38:45;96163.70;;;11.71;41.23
30856;BME280;17570;0.000;0.000;2023-01-27T05:41:13;96155.83;;;11.63;41.37
30856;BME280;17570;0.000;0.000;2023-01-27T05:43:42;96147.22;;;11.62;41.31
30856;BME280;17570;0.000;0.000;2023-01-27T05:46:11;96157.73;;;11.61;41.04
30856;BME280;17570;0.000;0.000;2023-01-27T05:48:40;96172.68;;;11.59;41.01
30856;BME280;17570;0.000;0.000;2023-01-27T05:51:08;96179.28;;;11.53;40.99
30856;BME280;17570;0.000;0.000;2023-01-27T05:53:35;96183.95;;;11.49;41.06
30856;BME280;17570;0.000;0.000;2023-01-27T05:56:03;96189.06;;;11.41;41.25
30856;BME280;17570;0.000;0.000;2023-01-27T05:58:31;96191.66;;;11.41;41.11
30856;BME280;17570;0.000;0.000;2023-01-27T06:01:12;96189.50;;;11.37;41.15
30856;BME280;17570;0.000;0.000;2023-01-27T06:03:40;96193.13;;;11.26;41.15
30856;BME280;17570;0.000;0.000;2023-01-27T06:06:08;96200.86;;;11.08;41.58
30856;BME280;17570;0.000;0.000;2023-01-27T06:08:36;96206.05;;;11.08;41.59
30856;BME280;17570;0.000;0.000;2023-01-27T06:11:04;96208.27;;;11.03;41.67
30856;BME280;17570;0.000;0.000;2023-01-27T06:13:32;96202.26;;;11.03;41.82
30856;BME280;17570;0.000;0.000;2023-01-27T06:16:01;96204.86;;;11.03;41.70
30856;BME280;17570;0.000;0.000;2023-01-27T06:18:31;96206.20;;;11.07;41.59
30856;BME280;17570;0.000;0.000;2023-01-27T06:20:59;96214.92;;;11.15;41.27
30856;BME280;17570;0.000;0.000;2023-01-27T06:23:27;96222.84;;;11.41;40.95
30856;BME280;17570;0.000;0.000;2023-01-27T06:25:54;96222.78;;;11.51;40.55
30856;BME280;17570;0.000;0.000;2023-01-27T06:28:23;96228.51;;;11.55;40.70
30856;BME280;17570;0.000;0.000;2023-01-27T06:30:51;96220.55;;;11.56;40.67
30856;BME280;17570;0.000;0.000;2023-01-27T06:33:18;96220.05;;;11.53;40.33
30856;BME280;17570;0.000;0.000;2023-01-27T06:35:46;96222.33;;;11.38;40.11
30856;BME280;17570;0.000;0.000;2023-01-27T06:38:13;96224.14;;;11.28;40.32
30856;BME280;17570;0.000;0.000;2023-01-27T06:40:41;96224.02;;;11.29;40.15
30856;BME280;17570;0.000;0.000;2023-01-27T06:43:12;96217.03;;;11.30;39.77
30856;BME280;17570;0.000;0.000;2023-01-27T06:45:39;96218.23;;;11.35;39.81
30856;BME280;17570;0.000;0.000;2023-01-27T06:48:07;96224.30;;;11.26;40.10
30856;BME280;17570;0.000;0.000;2023-01-27T06:50:35;96237.13;;;11.28;40.45
30856;BME280;17570;0.000;0.000;2023-01-27T06:53:04;96230.07;;;11.47;40.36
30856;BME280;17570;0.000;0.000;2023-01-27T06:55:32;96241.34;;;11.38;40.46
30856;BME280;17570;0.000;0.000;2023-01-27T06:58:00;96244.37;;;11.34;40.63
30856;BME280;17570;0.000;0.000;2023-01-27T07:00:28;96243.63;;;11.41;40.50
30856;BME280;17570;0.000;0.000;2023-01-27T07:02:56;96241.66;;;11.53;40.52
30856;BME280;17570;0.000;0.000;2023-01-27T07:05:23;96245.72;;;11.38;40.64
30856;BME280;17570;0.000;0.000;2023-01-27T07:07:51;96249.25;;;11.37;40.80
30856;BME280;17570;0.000;0.000;2023-01-27T07:10:18;96250.86;;;11.47;40.62
30856;BME280;17570;0.000;0.000;2023-01-27T07:12:48;96238.75;;;11.56;40.25
30856;BME280;17570;0.000;0.000;2023-01-27T07:15:15;96237.38;;;11.62;40.18
30856;BME280;17570;0.000;0.000;2023-01-27T07:17:42;96240.41;;;11.57;40.30
30856;BME280;17570;0.000;0.000;2023-01-27T07:20:10;96235.21;;;11.57;40.28
30856;BME280;17570;0.000;0.000;2023-01-27T07:22:38;96237.92;;;11.38;40.49
30856;BME280;17570;0.000;0.000;2023-01-27T07:25:06;96238.63;;;11.30;40.85
30856;BME280;17570;0.000;0.000;2023-01-27T07:27:33;96242.27;;;11.37;40.89
30856;BME280;17570;0.000;0.000;2023-01-27T07:30:01;96245.73;;;11.56;40.70
30856;BME280;17570;0.000;0.000;2023-01-27T07:32:28;96245.67;;;11.65;40.42
30856;BME280;17570;0.000;0.000;2023-01-27T07:34:56;96241.00;;;11.69;40.29
30856;BME280;17570;0.000;0.000;2023-01-27T07:37:23;96227.87;;;11.70;40.16
30856;BME280;17570;0.000;0.000;2023-01-27T07:39:51;96227.03;;;11.70;40.26
30856;BME280;17570;0.000;0.000;2023-01-27T07:42:18;96229.35;;;11.73;40.32
30856;BME280;17570;0.000;0.000;2023-01-27T07:44:48;96234.71;;;11.71;40.24
30856;BME280;17570;0.000;0.000;2023-01-27T07:47:15;96227.03;;;11.70;40.20
30856;BME280;17570;0.000;0.000;2023-01-27T07:49:42;96228.00;;;11.69;40.34
30856;BME280;17570;0.000;0.000;2023-01-27T07:52:10;96229.51;;;11.71;39.93
30856;BME280;17570;0.000;0.000;2023-01-27T07:54:37;96235.68;;;11.70;40.17
30856;BME280;17570;0.000;0.000;2023-01-27T07:57:05;96233.89;;;11.71;40.33
30856;BME280;17570;0.000;0.000;2023-01-27T07:59:32;96236.34;;;11.72;40.46
30856;BME280;17570;0.000;0.000;2023-01-27T08:02:00;96231.14;;;11.72;40.54
30856;BME280;17570;0.000;0.000;2023-01-27T08:04:27;96236.34;;;11.72;40.67
30856;BME280;17570;0.000;0.000;2023-01-27T08:06:55;96230.33;;;11.72;40.79
30856;BME280;17570;0.000;0.000;2023-01-27T08:09:22;96224.84;;;11.75;40.55
30856;BME280;17570;0.000;0.000;2023-01-27T08:11:50;96224.16;;;11.73;40.64
30856;BME280;17570;0.000;0.000;2023-01-27T08:14:17;96221.27;;;11.76;40.55
30856;BME280;17570;0.000;0.000;2023-01-27T08:16:45;96223.71;;;11.78;40.44
30856;BME280;17570;0.000;0.000;2023-01-27T08:19:12;96214.28;;;11.77;40.52
30856;BME280;17570;0.000;0.000;2023-01-27T08:21:39;96222.33;;;11.83;40.22
30856;BME280;17570;0.000;0.000;2023-01-27T08:24:07;96215.22;;;11.85;39.87
30856;BME280;17570;0.000;0.000;2023-01-27T08:26:35;96209.04;;;11.86;39.78
30856;BME280;17570;0.000;0.000;2023-01-27T08:29:03;96212.45;;;11.87;39.77
30856;BME280;17570;0.000;0.000;2023-01-27T08:31:30;96208.07;;;11.87;39.91
30856;BME280;17570;0.000;0.000;2023-01-27T08:33:58;96203.69;;;11.88;40.02
30856;BME280;17570;0.000;0.000;2023-01-27T08:36:25;96208.07;;;11.87;39.99
30856;BME280;17570;0.000;0.000;2023-01-27T08:38:54;96202.05;;;11.87;40.06
30856;BME280;17570;0.000;0.000;2023-01-27T08:41:22;96200.27;;;11.87;40.15
30856;BME280;17570;0.000;0.000;2023-01-27T08:43:52;96200.11;;;11.89;40.26
30856;BME280;17570;0.000;0.000;2023-01-27T08:46:19;96200.11;;;11.89;40.25
30856;BME280;17570;0.000;0.000;2023-01-27T08:48:47;96196.13;;;11.94;40.79
30856;BME280;17570;0.000;0.000;2023-01-27T08:51:16;96206.73;;;12.01;40.94
30856;BME280;17570;0.000;0.000;2023-01-27T08:53:44;96204.13;;;12.01;40.94
30856;BME280;17570;0.000;0.000;2023-01-27T08:56:12;96200.27;;;12.05;40.71
30856;BME280;17570;0.000;0.000;2023-01-27T08:58:40;96201.89;;;12.06;40.69
30856;BME280;17570;0.000;0.000;2023-01-27T09:01:07;96198.03;;;12.10;40.25
30856;BME280;17570;0.000;0.000;2023-01-27T09:03:35;96195.95;;;12.14;39.87
30856;BME280;17570;0.000;0.000;2023-01-27T09:06:03;96189.94;;;12.13;39.91
30856;BME280;17570;0.000;0.000;2023-01-27T09:08:31;96177.06;;;12.12;40.06
30856;BME280;17570;0.000;0.000;2023-01-27T09:10:58;96177.06;;;12.12;40.09
30856;BME280;17570;0.000;0.000;2023-01-27T09:13:26;96171.86;;;12.12;40.14
30856;BME280;17570;0.000;0.000;2023-01-27T09:15:54;96170.07;;;12.12;40.14
30856;BME280;17570;0.000;0.000;2023-01-27T09:18:21;96170.75;;;12.14;39.92
30856;BME280;17570;0.000;0.000;2023-01-27T09:20:49;96168.97;;;12.15;39.87
30856;BME280;17570;0.000;0.000;2023-01-27T09:23:16;96166.81;;;12.10;40.08
30856;BME280;17570;0.000;0.000;2023-01-27T09:25:44;96163.92;;;12.13;40.07
30856;BME280;17570;0.000;0.000;2023-01-27T09:28:11;96165.03;;;12.11;40.17
30856;BME280;17570;0.000;0.000;2023-01-27T09:30:44;96163.56;;;12.08;40.26
30856;BME280;17570;0.000;0.000;2023-01-27T09:33:13;96161.09;;;12.07;40.32
30856;BME280;17570;0.000;0.000;2023-01-27T09:35:50;96166.30;;;12.07;40.40
30856;BME280;17570;0.000;0.000;2023-01-27T09:38:13;96174.78;;;12.09;40.45
30856;BME280;17570;0.000;0.000;2023-01-27T09:51:32;96163.33;;;12.02;40.86
30856;BME280;17570;0.000;0.000;2023-01-27T09:56:24;96164.30;;;12.00;41.17
30856;BME280;17570;0.000;0.000;2023-01-27T09:59:36;96151.59;;;11.97;41.12
30856;BME280;17570;0.000;0.000;2023-01-27T10:01:21;96152.56;;;11.96;41.23
30856;BME280;17570;0.000;0.000;2023-01-27T10:18:57;96150.78;;;11.97;41.35
30856;BME280;17570;0.000;0.000;2023-01-27T10:21:38;96154.72;;;12.01;41.17
30856;BME280;17570;0.000;0.000;2023-01-27T10:24:26;96146.30;;;12.07;41.14
30856;BME280;17570;0.000;0.000;2023-01-27T10:26:53;96152.80;;;12.03;41.19
30856;BME280;17570;0.000;0.000;2023-01-27T10:34:33;96136.25;;;12.12;41.21
30856;BME280;17570;0.000;0.000;2023-01-27T10:37:14;96138.05;;;12.12;41.19
30856;BME280;17570;0.000;0.000;2023-01-27T10:39:41;96127.34;;;12.15;41.18
30856;BME280;17570;0.000;0.000;2023-01-27T10:42:16;96133.66;;;12.12;41.31
30856;BME280;17570;0.000;0.000;2023-01-27T10:47:14;96131.28;;;12.19;41.08
30856;BME280;17570;0.000;0.000;2023-01-27T10:49:41;96128.38;;;12.22;41.07
30856;BME280;17570;0.000;0.000;2023-01-27T10:54:39;96120.70;;;12.20;41.13
30856;BME280;17570;0.000;0.000;2023-01-27T10:57:14;96116.84;;;12.24;41.11
30856;BME280;17570;0.000;0.000;2023-01-27T10:59:52;96118.33;;;12.27;41.13
30856;BME280;17570;0.000;0.000;2023-01-27T11:05:03;96109.09;;;12.33;44.31
30856;BME280;17570;0.000;0.000;2023-01-27T11:07:30;96107.13;;;12.35;44.73
30856;BME280;17570;0.000;0.000;2023-01-27T11:10:04;96106.08;;;12.45;43.26
30856;BME280;17570;0.000;0.000;2023-01-27T11:12:38;96109.52;;;12.54;43.01
30856;BME280;17570;0.000;0.000;2023-01-27T11:15:01;96106.61;;;12.57;42.67
30856;BME280;17570;0.000;0.000;2023-01-27T11:17:43;96103.54;;;12.62;41.90
30856;BME280;17570;0.000;0.000;2023-01-27T11:20:12;96101.28;;;12.67;41.55
30856;BME280;17570;0.000;0.000;2023-01-27T11:22:51;96106.81;;;12.64;41.44
30856;BME280;17570;0.000;0.000;2023-01-27T11:25:22;96094.75;;;12.63;41.25
30856;BME280;17570;0.000;0.000;2023-01-27T11:27:54;96099.61;;;12.58;41.32
30856;BME280;17570;0.000;0.000;2023-01-27T11:30:25;96091.50;;;12.61;41.08
30856;BME280;17570;0.000;0.000;2023-01-27T11:33:01;96088.22;;;12.59;41.03
30856;BME280;17570;0.000;0.000;2023-01-27T11:35:25;96082.37;;;12.57;40.85
30856;BME280;17570;0.000;0.000;2023-01-27T11:37:53;96082.37;;;12.57;40.81
30856;BME280;17570;0.000;0.000;2023-01-27T11:40:21;96075.53;;;12.56;40.90
30856;BME280;17570;0.000;0.000;2023-01-27T11:42:49;96073.58;;;12.58;40.83
30856;BME280;17570;0.000;0.000;2023-01-27T11:45:20;96079.12;;;12.55;40.68
30856;BME280;17570;0.000;0.000;2023-01-27T11:47:54;96073.91;;;12.55;40.67
30856;BME280;17570;0.000;0.000;2023-01-27T11:50:17;96085.95;;;12.56;40.76
30856;BME280;17570;0.000;0.000;2023-01-27T11:52:48;96083.34;;;12.56;40.68
30856;BME280;17570;0.000;0.000;2023-01-27T11:55:18;96079.12;;;12.55;40.61
30856;BME280;17570;0.000;0.000;2023-01-27T11:57:51;96088.20;;;12.50;40.71
30856;BME280;17570;0.000;0.000;2023-01-27T12:00:20;96081.00;;;12.44;41.03
30856;BME280;17570;0.000;0.000;2023-01-27T12:02:58;96081.16;;;12.43;40.90
30856;BME280;17570;0.000;0.000;2023-01-27T12:05:27;96077.23;;;12.39;40.73
30856;BME280;17570;0.000;0.000;2023-01-27T12:07:53;96076.26;;;12.40;40.64
30856;BME280;17570;0.000;0.000;2023-01-27T12:12:51;96073.66;;;12.40;40.61
30856;BME280;17570;0.000;0.000;2023-01-27T12:15:18;96072.84;;;12.39;40.37
30856;BME280;17570;0.000;0.000;2023-01-27T12:17:47;96073.01;;;12.38;40.13
30856;BME280;17570;0.000;0.000;2023-01-27T12:20:22;96087.45;;;12.32;40.01
30856;BME280;17570;0.000;0.000;2023-01-27T12:22:44;96071.84;;;12.32;40.29
30856;BME280;17570;0.000;0.000;2023-01-27T12:25:18;96078.97;;;12.30;40.35
30856;BME280;17570;0.000;0.000;2023-01-27T12:27:46;96075.72;;;12.28;40.50
30856;BME280;17570;0.000;0.000;2023-01-27T12:30:19;96084.51;;;12.27;40.67
30856;BME280;17570;0.000;0.000;2023-01-27T12:32:45;96073.59;;;12.23;40.88
30856;BME280;17570;0.000;0.000;2023-01-27T12:35:25;96080.25;;;12.26;40.85
30856;BME280;17570;0.000;0.000;2023-01-27T12:37:49;96082.72;;;12.28;40.88
30856;BME280;17570;0.000;0.000;2023-01-27T12:40:18;96085.61;;;12.24;40.91
30856;BME280;17570;0.000;0.000;2023-01-27T12:45:30;96082.50;;;12.21;40.79
30856;BME280;17570;0.000;0.000;2023-01-27T12:50:38;96081.79;;;12.11;41.21
30856;BME280;17570;0.000;0.000;2023-01-27T12:53:19;96093.47;;;12.07;41.52
30856;BME280;17570;0.000;0.000;2023-01-27T12:55:57;96098.53;;;12.08;41.24
30856;BME280;17570;0.000;0.000;2023-01-27T12:58:27;96097.04;;;12.06;41.30
30856;BME280;17570;0.000;0.000;2023-01-27T13:00:54;96095.71;;;12.02;41.30
30856;BME280;17570;0.000;0.000;2023-01-27T13:03:23;96085.17;;;12.03;41.30
30856;BME280;17570;0.000;0.000;2023-01-27T13:05:56;96089.41;;;12.04;41.30
30856;BME280;17570;0.000;0.000;2023-01-27T13:08:22;96091.32;;;12.02;41.04
30856;BME280;17570;0.000;0.000;2023-01-27T13:10:52;96092.98;;;12.03;41.27
30856;BME280;17570;0.000;0.000;2023-01-27T13:13:22;96089.70;;;12.01;41.27
30856;BME280;17570;0.000;0.000;2023-01-27T13:15:53;96088.88;;;12.00;41.16
30856;BME280;17570;0.000;0.000;2023-01-27T13:18:20;96094.09;;;12.00;41.04
30856;BME280;17570;0.000;0.000;2023-01-27T13:20:55;96097.66;;;11.99;41.21
30856;BME280;17570;0.000;0.000;2023-01-27T13:23:28;96100.27;;;11.99;41.49
30856;BME280;17570;0.000;0.000;2023-01-27T13:26:06;96109.98;;;11.97;41.22
30856;BME280;17570;0.000;0.000;2023-01-27T13:28:45;96104.78;;;11.97;41.32
30856;BME280;17570;0.000;0.000;2023-01-27T13:31:15;96101.53;;;11.95;41.27
30856;BME280;17570;0.000;0.000;2023-01-27T13:33:43;96104.06;;;11.87;41.54
30856;BME280;17570;0.000;0.000;2023-01-27T13:38:52;96106.89;;;11.94;41.54
30856;BME280;17570;0.000;0.000;2023-01-27T13:41:26;96110.76;;;11.90;41.54
30856;BME280;17570;0.000;0.000;2023-01-27T13:44:00;96109.95;;;11.89;41.60
30856;BME280;17570;0.000;0.000;2023-01-27T13:46:29;96117.22;;;11.86;41.44
30856;BME280;17570;0.000;0.000;2023-01-27T13:48:58;96114.63;;;11.86;41.66
30856;BME280;17570;0.000;0.000;2023-01-27T13:51:31;96104.88;;;11.88;41.65
30856;BME280;17570;0.000;0.000;2023-01-27T13:53:58;96116.25;;;11.87;41.61
30856;BME280;17570;0.000;0.000;2023-01-27T13:56:33;96114.75;;;11.84;41.66
30856;BME280;17570;0.000;0.000;2023-01-27T13:59:13;96121.90;;;11.82;41.84
30856;BME280;17570;0.000;0.000;2023-01-27T14:01:46;96119.43;;;11.81;41.71
30856;BME280;17570;0.000;0.000;2023-01-27T14:06:51;96106.56;;;11.79;41.69
30856;BME280;17570;0.000;0.000;2023-01-27T14:27:43;96130.48;;;11.65;41.75
30856;BME280;17570;0.000;0.000;2023-01-27T14:32:45;96133.53;;;11.60;41.81
30856;BME280;17570;0.000;0.000;2023-01-27T14:40:37;96152.17;;;11.56;42.40
30856;BME280;17570;0.000;0.000;2023-01-27T14:45:52;96153.83;;;11.57;42.32
30856;BME280;17570;0.000;0.000;2023-01-27T14:48:34;96157.69;;;11.53;42.38
30856;BME280;17570;0.000;0.000;2023-01-27T14:56:06;96149.89;;;11.53;42.08
30856;BME280;17570;0.000;0.000;2023-01-27T15:01:08;96157.00;;;11.50;42.18
30856;BME280;17570;0.000;0.000;2023-01-27T15:08:44;96158.94;;;11.48;42.29
30856;BME280;17570;0.000;0.000;2023-01-27T15:16:46;96170.74;;;11.43;42.28